Time;durP1;ratioP1;P1;durP2;ratioP2;P2;SDS_P1;SDS_P2;PMS_P1;PMS_P2;Temp;Humidity;BMP_temperature;BMP_pressure;BME280_temperature;BME280_humidity;BME280_pressure;Samples;Min_cycle;Max_cycle;Signal;HPM_P1;HPM_P2
2023/05/06 00:02:14;;;;;;;87.90;59.90;;;;;;;-144.87;100.00;61487.56;4949831;28;20055;-74
2023/05/06 00:04:41;;;;;;;82.57;59.03;;;;;;;-144.87;100.00;61487.56;4964226;28;20401;-74
2023/05/06 00:07:07;;;;;;;84.93;58.58;;;;;;;-144.87;100.00;61487.56;4948587;28;20035;-75
2023/05/06 00:09:33;;;;;;;81.55;56.78;;;;;;;-144.87;100.00;61487.56;4966742;28;20031;-75
2023/05/06 00:12:00;;;;;;;94.60;61.28;;;;;;;-144.87;100.00;61487.56;4967700;28;21249;-75
2023/05/06 00:14:26;;;;;;;95.93;63.53;;;;;;;-144.87;100.00;61487.56;4948559;28;20133;-73
2023/05/06 00:16:52;;;;;;;94.43;62.17;;;;;;;-144.87;100.00;61487.56;4967161;28;20039;-74
2023/05/06 00:19:18;;;;;;;91.50;61.45;;;;;;;-144.87;100.00;61487.56;4947848;28;20125;-74
2023/05/06 00:21:45;;;;;;;106.35;71.25;;;;;;;-144.87;100.00;61487.56;4951089;28;20050;-74
2023/05/06 00:24:11;;;;;;;100.88;68.18;;;;;;;-144.87;100.00;61487.56;4933854;28;20046;-75
2023/05/06 00:26:37;;;;;;;102.75;66.15;;;;;;;-144.87;100.00;61487.56;4935329;28;20046;-74
2023/05/06 00:29:03;;;;;;;106.18;68.80;;;;;;;-144.87;100.00;61487.56;4935155;28;20027;-76
2023/05/06 00:31:30;;;;;;;103.05;69.45;;;;;;;-144.87;100.00;61487.56;4949402;28;20066;-75
2023/05/06 00:33:56;;;;;;;112.85;72.35;;;;;;;-144.87;100.00;61487.56;4949782;28;20074;-74
2023/05/06 00:36:22;;;;;;;102.80;67.68;;;;;;;-144.87;100.00;61487.56;4944600;28;20081;-74
2023/05/06 00:38:49;;;;;;;114.38;73.30;;;;;;;-144.87;100.00;61487.56;4950870;28;20046;-74
2023/05/06 00:41:15;;;;;;;119.35;75.22;;;;;;;-144.87;100.00;61487.56;4969206;28;20038;-74
2023/05/06 00:43:41;;;;;;;123.65;77.28;;;;;;;-144.87;100.00;61487.56;4948468;28;20034;-73
2023/05/06 00:46:10;;;;;;;109.43;72.25;;;;;;;-144.87;100.00;61487.56;4948477;28;20030;-74
2023/05/06 00:48:37;;;;;;;125.78;80.35;;;;;;;-144.87;100.00;61487.56;4934186;28;20042;-74
2023/05/06 00:51:04;;;;;;;123.30;77.68;;;;;;;-144.87;100.00;61487.56;4968222;28;20106;-74
2023/05/06 00:53:30;;;;;;;122.85;79.55;;;;;;;-144.87;100.00;61487.56;4948742;28;20038;-75
2023/05/06 00:55:57;;;;;;;122.47;80.35;;;;;;;-144.87;100.00;61487.56;4908049;28;20076;-74
2023/05/06 00:58:23;;;;;;;120.30;76.55;;;;;;;-144.87;100.00;61487.56;4925999;28;20090;-74
2023/05/06 01:00:51;;;;;;;139.15;83.13;;;;;;;-144.87;100.00;61487.56;4935098;28;20097;-74
2023/05/06 01:03:17;;;;;;;126.82;78.68;;;;;;;-144.87;100.00;61487.56;4946764;28;20043;-73
2023/05/06 01:06:10;;;;;;;123.72;78.00;;;;;;;-144.87;100.00;61487.56;4948987;28;20030;-73
2023/05/06 01:08:55;;;;;;;124.70;76.10;;;;;;;-144.87;100.00;61487.56;4930738;28;20062;-75
2023/05/06 01:11:45;;;;;;;137.20;82.25;;;;;;;-144.87;100.00;61487.56;4950607;28;20081;-73
2023/05/06 01:14:19;;;;;;;134.55;79.05;;;;;;;-144.87;100.00;61487.56;4929798;28;20035;-74
2023/05/06 01:16:47;;;;;;;129.75;78.30;;;;;;;-144.87;100.00;61487.56;4947630;28;20054;-74
2023/05/06 01:19:28;;;;;;;132.20;77.97;;;;;;;-144.87;100.00;61487.56;4947502;28;20037;-74
2023/05/06 01:21:56;;;;;;;141.13;83.80;;;;;;;-144.87;100.00;61487.56;4946629;28;20038;-73
2023/05/06 01:24:43;;;;;;;135.05;81.57;;;;;;;-144.87;100.00;61487.56;4946809;28;20031;-74
2023/05/06 01:27:11;;;;;;;152.43;88.65;;;;;;;-144.87;100.00;61487.56;4944846;28;20059;-74
2023/05/06 01:29:40;;;;;;;143.18;84.68;;;;;;;-144.87;100.00;61487.56;4947685;28;20145;-74
2023/05/06 01:32:15;;;;;;;160.07;90.72;;;;;;;-144.87;100.00;61487.56;4946579;28;20062;-74
2023/05/06 01:35:04;;;;;;;147.07;88.53;;;;;;;-144.87;100.00;61487.56;4966293;28;20097;-73
2023/05/06 01:37:36;;;;;;;157.75;89.45;;;;;;;-144.87;100.00;61487.56;4947010;28;20081;-73
2023/05/06 01:40:04;;;;;;;156.57;90.70;;;;;;;-144.87;100.00;61487.56;4946564;28;20509;-74
2023/05/06 01:42:33;;;;;;;158.30;91.50;;;;;;;-144.87;100.00;61487.56;4891225;29;20471;-74
2023/05/06 01:45:02;;;;;;;173.38;95.20;;;;;;;-144.87;100.00;61487.56;4890776;29;20040;-74
2023/05/06 01:47:28;;;;;;;166.55;94.72;;;;;;;-144.87;100.00;61487.56;4893120;29;20149;-74
2023/05/06 01:49:55;;;;;;;164.35;94.95;;;;;;;-144.87;100.00;61487.56;4889427;29;20051;-75
2023/05/06 01:52:21;;;;;;;171.60;93.60;;;;;;;-144.87;100.00;61487.56;4909058;29;20040;-74
2023/05/06 01:54:48;;;;;;;177.15;93.40;;;;;;;-144.87;100.00;61487.56;4895668;29;20036;-74
2023/05/06 01:57:15;;;;;;;162.25;90.38;;;;;;;-144.87;100.00;61487.56;4890181;29;20601;-74
2023/05/06 01:59:41;;;;;;;151.20;84.40;;;;;;;-144.87;100.00;61487.56;4890572;29;20044;-74
2023/05/06 02:02:07;;;;;;;156.57;85.75;;;;;;;-144.87;100.00;61487.56;4891867;29;20072;-74
2023/05/06 02:04:34;;;;;;;155.95;87.35;;;;;;;-144.87;100.00;61487.56;4904786;29;20106;-74
2023/05/06 02:07:00;;;;;;;158.52;85.82;;;;;;;-144.87;100.00;61487.56;4907661;29;20473;-75
2023/05/06 02:09:26;;;;;;;172.77;90.93;;;;;;;-144.87;100.00;61487.56;4905465;29;20051;-74
2023/05/06 02:11:58;;;;;;;156.07;87.90;;;;;;;-144.87;100.00;61487.56;4874673;29;20035;-73
2023/05/06 02:14:24;;;;;;;174.75;93.22;;;;;;;-144.87;100.00;61487.56;4910654;28;20070;-74
2023/05/06 02:16:51;;;;;;;169.52;92.05;;;;;;;-144.87;100.00;61487.56;4940987;28;20141;-73
2023/05/06 02:19:20;;;;;;;184.73;95.28;;;;;;;-144.87;100.00;61487.56;4932569;28;20026;-76
2023/05/06 02:21:46;;;;;;;179.25;94.68;;;;;;;-144.87;100.00;61487.56;4948422;28;20115;-75
2023/05/06 02:24:12;;;;;;;179.75;96.35;;;;;;;-144.87;100.00;61487.56;4946349;28;20043;-74
2023/05/06 02:26:39;;;;;;;195.20;98.53;;;;;;;-144.87;100.00;61487.56;4917346;28;20895;-74
2023/05/06 02:29:05;;;;;;;198.82;98.18;;;;;;;-144.87;100.00;61487.56;4946919;28;20039;-76
2023/05/06 02:31:31;;;;;;;200.25;100.22;;;;;;;-144.87;100.00;61487.56;4949951;28;20035;-73
2023/05/06 02:33:58;;;;;;;197.27;96.93;;;;;;;-144.87;100.00;61487.56;4933414;28;20034;-75
2023/05/06 02:36:24;;;;;;;187.30;97.88;;;;;;;-144.87;100.00;61487.56;4933196;28;20038;-73
2023/05/06 02:38:50;;;;;;;182.55;93.63;;;;;;;-144.87;100.00;61487.56;4965139;28;20133;-76
2023/05/06 02:41:17;;;;;;;188.82;93.75;;;;;;;-144.87;100.00;61487.56;4945140;28;20063;-73
2023/05/06 02:43:43;;;;;;;179.10;91.93;;;;;;;-144.87;100.00;61487.56;4917830;28;20611;-75
2023/05/06 02:46:10;;;;;;;200.68;98.60;;;;;;;-144.87;100.00;61487.56;4964518;28;20047;-74
2023/05/06 02:48:36;;;;;;;191.52;97.60;;;;;;;-144.87;100.00;61487.56;4926753;28;20133;-76
2023/05/06 02:51:04;;;;;;;195.25;97.38;;;;;;;-144.87;100.00;61487.56;4964604;28;20567;-74
2023/05/06 02:53:30;;;;;;;199.52;98.32;;;;;;;-144.87;100.00;61487.56;4965034;28;20500;-73
2023/05/06 02:55:56;;;;;;;191.52;97.10;;;;;;;-144.87;100.00;61487.56;4932044;28;20063;-74
2023/05/06 02:58:23;;;;;;;213.57;102.68;;;;;;;-144.87;100.00;61487.56;4948063;28;20043;-75
2023/05/06 03:00:49;;;;;;;210.40;104.18;;;;;;;-144.87;100.00;61487.56;4945810;28;20085;-72
2023/05/06 03:03:16;;;;;;;200.48;97.72;;;;;;;-144.87;100.00;61487.56;4932870;28;20034;-74
2023/05/06 03:05:43;;;;;;;201.85;102.32;;;;;;;-144.87;100.00;61487.56;4964167;28;20022;-73
2023/05/06 03:08:09;;;;;;;204.15;101.57;;;;;;;-144.87;100.00;61487.56;4965551;28;20043;-74
2023/05/06 03:10:36;;;;;;;229.15;107.88;;;;;;;-144.87;100.00;61487.56;4919870;28;20034;-74
2023/05/06 03:13:03;;;;;;;226.38;105.53;;;;;;;-144.87;100.00;61487.56;4923274;28;20046;-74
2023/05/06 03:15:30;;;;;;;224.80;107.25;;;;;;;-144.87;100.00;61487.56;4947738;28;20050;-74
2023/05/06 03:17:57;;;;;;;249.35;112.50;;;;;;;-144.87;100.00;61487.56;4968872;28;20061;-74
2023/05/06 03:20:24;;;;;;;218.95;107.05;;;;;;;-144.87;100.00;61487.56;4950975;28;20043;-73
2023/05/06 03:22:55;;;;;;;277.60;116.18;;;;;;;-144.87;100.00;61487.56;4951250;28;20098;-79
2023/05/06 03:25:22;;;;;;;233.07;107.00;;;;;;;-144.87;100.00;61487.56;4917496;28;20038;-73
2023/05/06 03:27:49;;;;;;;223.00;104.40;;;;;;;-144.87;100.00;61487.56;4950940;28;20777;-74
2023/05/06 03:30:21;;;;;;;231.50;105.80;;;;;;;-144.87;100.00;61487.56;4946376;28;20050;-74
2023/05/06 03:32:49;;;;;;;241.82;109.70;;;;;;;-144.87;100.00;61487.56;4936267;28;20034;-73
2023/05/06 03:35:23;;;;;;;276.88;114.15;;;;;;;-144.87;100.00;61487.56;4947261;28;20046;-74
2023/05/06 03:37:53;;;;;;;261.23;113.85;;;;;;;-144.87;100.00;61487.56;4967757;28;20392;-77
2023/05/06 03:40:21;;;;;;;276.58;115.38;;;;;;;-144.87;100.00;61487.56;4934299;28;21582;-72
2023/05/06 03:42:48;;;;;;;266.85;117.65;;;;;;;-144.87;100.00;61487.56;4951982;28;20050;-74
2023/05/06 03:45:15;;;;;;;259.92;115.88;;;;;;;-144.87;100.00;61487.56;4933394;28;20523;-74
2023/05/06 03:47:42;;;;;;;254.52;118.13;;;;;;;-144.87;100.00;61487.56;4935066;28;20113;-74
2023/05/06 03:50:10;;;;;;;314.80;129.60;;;;;;;-144.87;100.00;61487.56;4949039;28;20504;-74
2023/05/06 03:52:38;;;;;;;325.35;128.30;;;;;;;-144.87;100.00;61487.56;4926549;28;20052;-74
2023/05/06 03:55:05;;;;;;;283.02;126.43;;;;;;;-144.87;100.00;61487.56;4934967;28;20035;-73
2023/05/06 03:57:33;;;;;;;276.13;127.03;;;;;;;-144.87;100.00;61487.56;4948999;28;20031;-73
2023/05/06 03:59:59;;;;;;;277.60;126.82;;;;;;;-144.87;100.00;61487.56;4950947;28;20115;-74
2023/05/06 04:02:28;;;;;;;300.73;132.75;;;;;;;-144.87;100.00;61487.56;4953131;28;20081;-74
2023/05/06 04:04:56;;;;;;;283.10;130.65;;;;;;;-144.87;100.00;61487.56;4947931;28;20031;-74
2023/05/06 04:07:22;;;;;;;297.67;128.18;;;;;;;-144.87;100.00;61487.56;4947355;28;20037;-72
2023/05/06 04:09:50;;;;;;;304.40;129.40;;;;;;;-144.87;100.00;61487.56;4950950;28;20880;-73
2023/05/06 04:12:17;;;;;;;307.60;131.02;;;;;;;-144.87;100.00;61487.56;4947874;28;20080;-74
2023/05/06 04:14:45;;;;;;;277.73;126.78;;;;;;;-144.87;100.00;61487.56;4948259;28;20062;-74
2023/05/06 04:17:11;;;;;;;305.40;128.75;;;;;;;-144.87;100.00;61487.56;4935085;28;20077;-73
2023/05/06 04:19:38;;;;;;;301.08;125.25;;;;;;;-144.87;100.00;61487.56;4931332;28;20071;-74
2023/05/06 04:22:04;;;;;;;508.67;148.80;;;;;;;-144.87;100.00;61487.56;4948798;28;20682;-74
2023/05/06 04:24:31;;;;;;;743.13;164.90;;;;;;;-144.87;100.00;61487.56;4941446;28;20043;-74
2023/05/06 04:26:57;;;;;;;616.78;149.10;;;;;;;-144.87;100.00;61487.56;4966058;28;20034;-73
2023/05/06 04:29:24;;;;;;;677.13;150.98;;;;;;;-144.87;100.00;61487.56;4932067;28;20039;-73
2023/05/06 04:31:57;;;;;;;557.63;138.35;;;;;;;-144.87;100.00;61487.56;4936153;28;20039;-73
2023/05/06 04:34:26;;;;;;;552.33;142.82;;;;;;;-144.87;100.00;61487.56;4949078;28;20035;-72
2023/05/06 04:36:54;;;;;;;665.45;151.52;;;;;;;-144.87;100.00;61487.56;4935480;28;20062;-74
2023/05/06 04:39:38;;;;;;;642.47;142.48;;;;;;;-144.87;100.00;61487.56;4948005;28;20648;-73
2023/05/06 04:42:06;;;;;;;769.70;144.43;;;;;;;-144.87;100.00;61487.56;4951665;28;20035;-73
2023/05/06 04:44:41;;;;;;;576.03;129.88;;;;;;;-144.87;100.00;61487.56;4922401;28;20106;-74
2023/05/06 04:47:09;;;;;;;640.95;145.02;;;;;;;-144.87;100.00;61487.56;4958029;28;20039;-74
2023/05/06 04:49:36;;;;;;;568.67;136.02;;;;;;;-144.87;100.00;61487.56;4967859;28;20374;-74
2023/05/06 04:52:04;;;;;;;717.67;145.63;;;;;;;-144.87;100.00;61487.56;4961878;28;20170;-75
2023/05/06 04:54:31;;;;;;;1022.83;168.43;;;;;;;-144.87;100.00;61487.56;4952013;28;20035;-74
2023/05/06 04:56:59;;;;;;;496.40;129.20;;;;;;;-144.87;100.00;61487.56;4971374;28;20041;-74
2023/05/06 04:59:27;;;;;;;598.45;136.68;;;;;;;-144.87;100.00;61487.56;4966112;28;20106;-74
2023/05/06 05:01:54;;;;;;;455.77;125.18;;;;;;;-144.87;100.00;61487.56;4932684;28;20031;-74
2023/05/06 05:04:20;;;;;;;305.92;106.50;;;;;;;-144.87;100.00;61487.56;4946228;28;20047;-73
2023/05/06 05:06:47;;;;;;;332.02;107.88;;;;;;;-144.87;100.00;61487.56;4951311;28;20393;-73
2023/05/06 05:09:14;;;;;;;250.43;107.50;;;;;;;-144.87;100.00;61487.56;4948041;28;20093;-74
2023/05/06 05:11:43;;;;;;;264.42;101.80;;;;;;;-144.87;100.00;61487.56;4932120;28;20037;-73
2023/05/06 05:14:09;;;;;;;238.40;98.32;;;;;;;-144.87;100.00;61487.56;4932818;28;20821;-73
2023/05/06 05:16:37;;;;;;;222.85;97.68;;;;;;;-144.87;100.00;61487.56;4952426;28;20046;-72
2023/05/06 05:19:03;;;;;;;213.00;97.30;;;;;;;-144.87;100.00;61487.56;4948371;28;20088;-74
2023/05/06 05:21:31;;;;;;;234.90;100.43;;;;;;;-144.87;100.00;61487.56;4928176;28;20182;-73
2023/05/06 05:23:58;;;;;;;206.32;97.20;;;;;;;-144.87;100.00;61487.56;4908949;28;20178;-73
2023/05/06 05:26:25;;;;;;;201.82;93.80;;;;;;;-144.87;100.00;61487.56;4948539;28;20904;-74
2023/05/06 05:28:53;;;;;;;189.35;90.75;;;;;;;-144.87;100.00;61487.56;4931492;28;20065;-73
2023/05/06 05:31:19;;;;;;;179.93;89.28;;;;;;;-144.87;100.00;61487.56;4933041;28;20035;-74
2023/05/06 05:33:45;;;;;;;195.20;92.45;;;;;;;-144.87;100.00;61487.56;4933784;28;20062;-72
2023/05/06 05:36:15;;;;;;;176.40;88.53;;;;;;;-144.87;100.00;61487.56;4951460;28;20034;-74
2023/05/06 05:38:44;;;;;;;177.70;93.20;;;;;;;-144.87;100.00;61487.56;4928375;28;20094;-73
2023/05/06 05:41:10;;;;;;;162.98;85.38;;;;;;;-144.87;100.00;61487.56;4947336;28;20051;-74
2023/05/06 05:43:37;;;;;;;160.35;86.22;;;;;;;-144.87;100.00;61487.56;4944022;28;20043;-74
2023/05/06 05:46:04;;;;;;;158.73;85.10;;;;;;;-144.87;100.00;61487.56;4946419;28;20046;-73
2023/05/06 05:48:32;;;;;;;159.52;86.07;;;;;;;-144.87;100.00;61487.56;4931478;28;20050;-72
2023/05/06 05:51:01;;;;;;;153.70;85.22;;;;;;;-144.87;100.00;61487.56;4913743;28;21896;-73
2023/05/06 05:53:27;;;;;;;140.23;79.32;;;;;;;-144.87;100.00;61487.56;4946814;28;20047;-73
2023/05/06 05:55:54;;;;;;;126.75;76.57;;;;;;;-144.87;100.00;61487.56;4949350;28;20039;-73
2023/05/06 05:58:20;;;;;;;132.95;77.00;;;;;;;-144.87;100.00;61487.56;4948006;28;20042;-73
2023/05/06 06:00:47;;;;;;;126.20;73.55;;;;;;;-144.87;100.00;61487.56;4946961;28;20123;-76
2023/05/06 06:03:17;;;;;;;123.45;73.45;;;;;;;-144.87;100.00;61487.56;4946993;28;20035;-74
2023/05/06 06:05:43;;;;;;;109.70;66.38;;;;;;;-144.87;100.00;61487.56;4944177;28;20019;-74
2023/05/06 06:08:11;;;;;;;101.05;64.45;;;;;;;-144.87;100.00;61487.56;4924298;28;20047;-74
2023/05/06 06:10:38;;;;;;;105.32;62.83;;;;;;;-144.87;100.00;61487.56;4944956;28;20204;-75
2023/05/06 06:13:11;;;;;;;104.45;66.50;;;;;;;-144.87;100.00;61487.56;4949167;28;20043;-73
2023/05/06 06:15:37;;;;;;;93.93;61.78;;;;;;;-144.87;100.00;61487.56;4964106;28;20105;-74
2023/05/06 06:18:04;;;;;;;98.55;63.65;;;;;;;-144.87;100.00;61487.56;4942101;28;20054;-73
2023/05/06 06:20:30;;;;;;;86.13;56.53;;;;;;;-144.87;100.00;61487.56;4948410;28;20038;-74
2023/05/06 06:22:57;;;;;;;92.47;59.63;;;;;;;-144.87;100.00;61487.56;4932065;28;20039;-73
2023/05/06 06:25:24;;;;;;;80.57;54.72;;;;;;;-144.87;100.00;61487.56;4915213;28;20477;-74
2023/05/06 06:27:50;;;;;;;72.95;51.08;;;;;;;-144.87;100.00;61487.56;4950231;28;20073;-75
2023/05/06 06:30:17;;;;;;;67.45;46.70;;;;;;;-144.87;100.00;61487.56;4949399;28;20050;-74
2023/05/06 06:32:51;;;;;;;61.03;44.28;;;;;;;-144.87;100.00;61487.56;4930776;28;20062;-73
2023/05/06 06:35:18;;;;;;;60.28;44.35;;;;;;;-144.87;100.00;61487.56;4942818;28;20042;-74
2023/05/06 06:37:45;;;;;;;58.83;43.15;;;;;;;-144.87;100.00;61487.56;4946283;28;20042;-74
2023/05/06 06:40:12;;;;;;;54.92;42.55;;;;;;;-144.87;100.00;61487.56;4947241;28;20251;-74
2023/05/06 06:42:38;;;;;;;50.33;39.70;;;;;;;-144.87;100.00;61487.56;4936392;28;20054;-73
2023/05/06 06:45:22;;;;;;;55.92;38.05;;;;;;;-144.87;100.00;61487.56;4934855;28;20038;-74
2023/05/06 06:47:49;;;;;;;46.35;34.90;;;;;;;-144.87;100.00;61487.56;4940335;28;20066;-75
2023/05/06 06:50:15;;;;;;;42.05;33.75;;;;;;;-144.87;100.00;61487.56;4970106;28;20066;-74
2023/05/06 06:52:41;;;;;;;37.45;29.48;;;;;;;-144.87;100.00;61487.56;4958219;28;20035;-74
2023/05/06 06:55:08;;;;;;;35.20;27.88;;;;;;;-144.87;100.00;61487.56;4955827;28;20054;-74
2023/05/06 06:57:35;;;;;;;28.38;24.25;;;;;;;-144.87;100.00;61487.56;4929983;28;20110;-74
2023/05/06 07:00:01;;;;;;;31.33;23.75;;;;;;;-144.87;100.00;61487.56;4954663;28;20038;-74
2023/05/06 07:02:28;;;;;;;27.55;23.30;;;;;;;-144.87;100.00;61487.56;4933479;29;20047;-75
2023/05/06 07:04:54;;;;;;;28.13;22.55;;;;;;;-144.87;100.00;61487.56;4970144;28;20401;-75
2023/05/06 07:07:20;;;;;;;27.05;22.13;;;;;;;-144.87;100.00;61487.56;4953172;28;20114;-74
2023/05/06 07:09:46;;;;;;;28.25;22.20;;;;;;;-144.87;100.00;61487.56;4963553;28;20050;-75
2023/05/06 07:12:13;;;;;;;26.85;21.95;;;;;;;-144.87;100.00;61487.56;4949965;28;20031;-75
2023/05/06 07:14:40;;;;;;;26.60;21.63;;;;;;;-144.87;100.00;61487.56;4955408;28;20592;-73
2023/05/06 07:17:06;;;;;;;29.92;20.05;;;;;;;-144.87;100.00;61487.56;4973491;28;20051;-74
2023/05/06 07:19:33;;;;;;;24.42;19.80;;;;;;;-144.87;100.00;61487.56;4955835;28;20049;-73
2023/05/06 07:21:59;;;;;;;25.90;21.38;;;;;;;-144.87;100.00;61487.56;4955566;28;20062;-74
2023/05/06 07:24:25;;;;;;;30.73;20.95;;;;;;;-144.87;100.00;61487.56;4954931;29;20500;-74
2023/05/06 07:26:52;;;;;;;25.45;21.67;;;;;;;-144.87;100.00;61487.56;4955463;29;20039;-75
2023/05/06 07:29:18;;;;;;;30.33;22.33;;;;;;;-144.87;100.00;61487.56;4952954;29;20039;-73
2023/05/06 07:31:44;;;;;;;32.10;22.80;;;;;;;-144.87;100.00;61487.56;4952119;28;20093;-75
2023/05/06 07:34:11;;;;;;;26.35;22.30;;;;;;;-144.87;100.00;61487.56;4973465;28;20034;-74
2023/05/06 07:36:41;;;;;;;33.92;23.40;;;;;;;-144.87;100.00;61487.56;4940601;28;20098;-74
2023/05/06 07:39:08;;;;;;;;;;;;;;;-144.87;100.00;61487.56;4974129;28;20400;-74
2023/05/06 07:41:34;;;;;;;27.92;22.58;;;;;;;-144.87;100.00;61487.56;4940148;28;19922;-75
2023/05/06 07:44:01;;;;;;;30.45;22.92;;;;;;;-144.87;100.00;61487.56;4939134;28;20060;-74
2023/05/06 07:46:27;;;;;;;30.38;24.65;;;;;;;-144.87;100.00;61487.56;4940064;28;20039;-74
2023/05/06 07:48:54;;;;;;;33.22;22.75;;;;;;;-144.87;100.00;61487.56;4955268;28;20051;-75
2023/05/06 07:51:21;;;;;;;33.80;23.60;;;;;;;-144.87;100.00;61487.56;4973513;28;20043;-73
2023/05/06 07:53:47;;;;;;;31.13;22.38;;;;;;;-144.87;100.00;61487.56;4973050;28;20444;-74
2023/05/06 07:56:13;;;;;;;29.25;21.73;;;;;;;-144.87;100.00;61487.56;4956102;28;20055;-75
2023/05/06 07:58:40;;;;;;;33.72;24.30;;;;;;;-144.87;100.00;61487.56;4923185;29;20471;-75
2023/05/06 08:01:06;;;;;;;33.28;23.63;;;;;;;-144.87;100.00;61487.56;4953053;28;20066;-74
2023/05/06 08:03:32;;;;;;;32.53;24.77;;;;;;;-144.87;100.00;61487.56;4936824;29;20141;-73
2023/05/06 08:05:59;;;;;;;33.88;23.88;;;;;;;-144.87;100.00;61487.56;4951709;28;20107;-75
2023/05/06 08:08:29;;;;;;;37.17;25.27;;;;;;;-144.87;100.00;61487.56;4955906;28;20492;-74
2023/05/06 08:10:56;;;;;;;34.00;26.50;;;;;;;-144.87;100.00;61487.56;4924514;28;20391;-76
2023/05/06 08:13:23;;;;;;;34.75;24.73;;;;;;;-144.87;100.00;61487.56;4955363;28;20045;-75
2023/05/06 08:15:50;;;;;;;39.72;26.27;;;;;;;-144.87;100.00;61487.56;4972405;28;20049;-74
2023/05/06 08:18:16;;;;;;;38.88;28.75;;;;;;;-144.87;100.00;61487.56;4972674;28;20292;-74
2023/05/06 08:20:43;;;;;;;37.33;26.48;;;;;;;-144.87;100.00;61487.56;4970784;28;20086;-74
2023/05/06 08:23:09;;;;;;;38.13;28.20;;;;;;;-144.87;100.00;61487.56;4955011;28;20492;-75
2023/05/06 08:25:35;;;;;;;42.80;28.42;;;;;;;-144.87;100.00;61487.56;4954707;28;20042;-74
2023/05/06 08:28:02;;;;;;;38.72;29.75;;;;;;;-144.87;100.00;61487.56;4973036;28;20130;-73
2023/05/06 08:30:28;;;;;;;40.95;28.77;;;;;;;-144.87;100.00;61487.56;4972822;28;20043;-75
2023/05/06 08:32:55;;;;;;;43.67;30.98;;;;;;;-144.87;100.00;61487.56;4955156;28;20098;-75
2023/05/06 08:35:21;;;;;;;38.90;28.75;;;;;;;-144.87;100.00;61487.56;4953782;29;20043;-75
2023/05/06 08:37:47;;;;;;;38.85;29.23;;;;;;;-144.87;100.00;61487.56;4936497;29;20110;-74
2023/05/06 08:40:22;;;;;;;32.75;26.55;;;;;;;-144.87;100.00;61487.56;4935971;29;20083;-74
2023/05/06 08:42:49;;;;;;;39.47;27.30;;;;;;;-144.87;100.00;61487.56;4967650;28;20069;-75
2023/05/06 08:45:19;;;;;;;39.22;29.25;;;;;;;-144.87;100.00;61487.56;4920132;29;20024;-75
2023/05/06 08:47:48;;;;;;;34.93;28.47;;;;;;;-144.87;100.00;61487.56;4969723;28;20525;-75
2023/05/06 08:50:15;;;;;;;42.05;29.67;;;;;;;-144.87;100.00;61487.56;4955356;28;20047;-74
2023/05/06 08:52:41;;;;;;;47.20;33.03;;;;;;;-144.87;100.00;61487.56;4971971;28;20047;-75
2023/05/06 08:55:08;;;;;;;38.15;29.70;;;;;;;-144.87;100.00;61487.56;4953963;28;20050;-74
2023/05/06 08:57:36;;;;;;;40.85;32.00;;;;;;;-144.87;100.00;61487.56;4939153;28;20031;-74
2023/05/06 09:00:03;;;;;;;42.42;31.70;;;;;;;-144.87;100.00;61487.56;4972040;28;20042;-74
2023/05/06 09:02:30;;;;;;;52.22;36.67;;;;;;;-144.87;100.00;61487.56;4971009;28;20035;-74
2023/05/06 09:04:56;;;;;;;51.00;37.03;;;;;;;-144.87;100.00;61487.56;4971952;28;20442;-75
2023/05/06 09:07:24;;;;;;;48.75;35.38;;;;;;;-144.87;100.00;61487.56;4970949;28;20121;-75
2023/05/06 09:09:51;;;;;;;63.45;39.55;;;;;;;-144.87;100.00;61487.56;4972557;28;20058;-75
2023/05/06 09:12:17;;;;;;;58.38;36.22;;;;;;;-144.87;100.00;61487.56;4972569;28;20066;-74
2023/05/06 09:14:45;;;;;;;48.40;35.08;;;;;;;-144.87;100.00;61487.56;4957963;28;20035;-75
2023/05/06 09:17:27;;;;;;;45.47;31.88;;;;;;;-144.87;100.00;61487.56;4936808;29;20078;-74
2023/05/06 09:19:58;;;;;;;45.83;30.65;;;;;;;-144.87;100.00;61487.56;4936154;29;20500;-74
2023/05/06 09:22:30;;;;;;;42.67;30.13;;;;;;;-144.87;100.00;61487.56;4952690;29;20506;-74
2023/05/06 09:24:56;;;;;;;37.03;27.63;;;;;;;-144.87;100.00;61487.56;4936280;28;20035;-74
2023/05/06 09:27:27;;;;;;;37.15;27.65;;;;;;;-144.87;100.00;61487.56;4954722;28;20031;-76
2023/05/06 09:30:00;;;;;;;;;;;;;;;-144.87;100.00;61487.56;4972092;28;20038;-74
2023/05/06 09:32:26;;;;;;;34.10;25.75;;;;;;;-144.87;100.00;61487.56;4971071;28;19925;-75
2023/05/06 09:34:53;;;;;;;38.28;26.60;;;;;;;-144.87;100.00;61487.56;4970062;28;20108;-74
2023/05/06 09:37:19;;;;;;;40.40;28.00;;;;;;;-144.87;100.00;61487.56;4934929;29;20131;-74
2023/05/06 09:39:46;;;;;;;34.25;21.50;;;;;;;-144.87;100.00;61487.56;4952609;29;20039;-74
2023/05/06 09:42:13;;;;;;;28.63;21.33;;;;;;;-144.87;100.00;61487.56;4934916;29;20039;-75
2023/05/06 09:44:39;;;;;;;29.58;20.13;;;;;;;-144.87;100.00;61487.56;4950403;29;20274;-75
2023/05/06 09:47:05;;;;;;;29.83;19.75;;;;;;;-144.87;100.00;61487.56;4950573;28;20050;-76
2023/05/06 09:49:33;;;;;;;30.20;20.83;;;;;;;-144.87;100.00;61487.56;4921817;28;20415;-75
2023/05/06 09:52:00;;;;;;;26.05;17.50;;;;;;;-144.87;100.00;61487.56;4970806;28;20034;-76
2023/05/06 09:54:26;;;;;;;29.73;17.08;;;;;;;-144.87;100.00;61487.56;4953377;28;20047;-74
2023/05/06 09:56:53;;;;;;;25.90;16.75;;;;;;;-144.87;100.00;61487.56;4921005;28;20042;-74
2023/05/06 09:59:19;;;;;;;25.85;16.05;;;;;;;-144.87;100.00;61487.56;4971336;28;20035;-75
2023/05/06 10:01:46;;;;;;;22.98;14.23;;;;;;;-144.87;100.00;61487.56;4940093;29;20097;-75
2023/05/06 10:04:13;;;;;;;24.35;13.73;;;;;;;-144.87;100.00;61487.56;4934910;29;20030;-75
2023/05/06 10:06:40;;;;;;;23.20;14.05;;;;;;;-144.87;100.00;61487.56;4940626;28;20186;-76
2023/05/06 10:09:07;;;;;;;20.98;13.50;;;;;;;-144.87;100.00;61487.56;4975637;28;20058;-74
2023/05/06 10:11:35;;;;;;;20.13;12.93;;;;;;;-144.87;100.00;61487.56;4977590;28;20492;-75
2023/05/06 10:14:01;;;;;;;21.65;13.45;;;;;;;-144.87;100.00;61487.56;4981803;28;20125;-74
2023/05/06 10:16:28;;;;;;;19.13;12.45;;;;;;;-144.87;100.00;61487.56;4942420;28;20042;-75
2023/05/06 10:18:55;;;;;;;17.65;10.45;;;;;;;-144.87;100.00;61487.56;4956296;28;20039;-76
2023/05/06 10:21:26;;;;;;;22.05;12.43;;;;;;;-144.87;100.00;61487.56;4952122;28;20117;-75
2023/05/06 10:24:13;;;;;;;18.15;12.02;;;;;;;-144.87;100.00;61487.56;4939450;28;20098;-74
2023/05/06 10:26:40;;;;;;;21.33;12.68;;;;;;;-144.87;100.00;61487.56;4937966;28;20539;-74
2023/05/06 10:29:09;;;;;;;22.65;11.73;;;;;;;-144.87;100.00;61487.56;4953730;28;20078;-76
2023/05/06 10:31:43;;;;;;;17.80;10.38;;;;;;;-144.87;100.00;61487.56;4970459;28;20038;-76
2023/05/06 10:34:10;;;;;;;19.27;9.82;;;;;;;-144.87;100.00;61487.56;4953654;28;20043;-75
2023/05/06 10:36:36;;;;;;;17.83;9.07;;;;;;;-144.87;100.00;61487.56;4938052;28;20047;-74
2023/05/06 10:39:03;;;;;;;16.80;9.38;;;;;;;-144.87;100.00;61487.56;4937630;28;20031;-74
2023/05/06 10:41:30;;;;;;;12.80;8.43;;;;;;;-144.87;100.00;61487.56;4952370;28;20062;-73
2023/05/06 10:43:58;;;;;;;13.60;7.93;;;;;;;-144.87;100.00;61487.56;4953545;28;20102;-75
2023/05/06 10:46:26;;;;;;;16.90;8.60;;;;;;;-144.87;100.00;61487.56;4938530;28;20038;-76
2023/05/06 10:49:09;;;;;;;20.42;10.55;;;;;;;-144.87;100.00;61487.56;4952778;28;20133;-75
2023/05/06 10:51:41;;;;;;;19.73;10.45;;;;;;;-144.87;100.00;61487.56;4937122;28;20046;-74
2023/05/06 10:54:21;;;;;;;15.60;8.97;;;;;;;-144.87;100.00;61487.56;4951845;28;20042;-74